Time;durP1;ratioP1;P1;durP2;ratioP2;P2;SDS_P1;SDS_P2;PMS_P1;PMS_P2;Temp;Humidity;BMP_temperature;BMP_pressure;BME280_temperature;BME280_humidity;BME280_pressure;Samples;Min_cycle;Max_cycle;Signal;HPM_P1;HPM_P2
2022/01/15 00:00:24;;;;;;;67.85;14.93;;;;;;;6.99;64.60;103284.44;4987426;28;114010;-69
2022/01/15 00:02:51;;;;;;;71.70;14.32;;;;;;;6.99;64.70;103279.19;4987421;28;124391;-68
2022/01/15 00:05:18;;;;;;;98.40;15.02;;;;;;;7.00;64.67;103286.19;4989687;28;124266;-70
2022/01/15 00:07:47;;;;;;;93.13;15.60;;;;;;;7.00;64.50;103283.56;4989787;28;114999;-69
2022/01/15 00:10:17;;;;;;;100.40;16.45;;;;;;;6.97;64.65;103275.66;4989810;28;114712;-70
2022/01/15 00:12:44;;;;;;;70.18;15.02;;;;;;;6.94;64.77;103265.06;4991627;28;123136;-70
2022/01/15 00:15:22;;;;;;;77.65;16.50;;;;;;;6.94;64.82;103262.44;4988812;28;123017;-70
2022/01/15 00:17:56;;;;;;;65.50;14.60;;;;;;;6.95;64.81;103261.56;4991218;28;114036;-70
2022/01/15 00:20:25;;;;;;;65.82;14.18;;;;;;;6.97;64.95;103249.31;4986159;28;114438;-70
2022/01/15 00:22:54;;;;;;;57.08;14.75;;;;;;;7.00;64.93;103249.31;4988414;28;123793;-70
2022/01/15 00:25:23;;;;;;;58.42;14.45;;;;;;;7.02;65.15;103244.94;4989971;28;124745;-70
2022/01/15 00:27:52;;;;;;;49.63;12.93;;;;;;;7.04;64.58;103235.28;4987709;28;114266;-70
2022/01/15 00:30:20;;;;;;;67.82;14.20;;;;;;;7.07;64.82;103230.06;4969707;28;113659;-70
2022/01/15 00:32:48;;;;;;;66.10;13.93;;;;;;;7.08;64.80;103237.06;4989277;28;124450;-70
2022/01/15 00:35:16;;;;;;;70.75;13.77;;;;;;;7.11;64.70;103239.75;4988116;28;124414;-70
2022/01/15 00:37:43;;;;;;;64.88;14.10;;;;;;;7.13;64.59;103235.38;4988603;28;113330;-69
2022/01/15 00:40:14;;;;;;;64.70;15.07;;;;;;;7.15;64.60;103238.91;4989564;28;113946;-70
2022/01/15 00:42:44;;;;;;;59.63;13.45;;;;;;;7.17;64.81;103233.66;4988194;28;124570;-70
2022/01/15 00:45:17;;;;;;;84.30;15.00;;;;;;;7.17;64.62;103231.88;4967576;28;123778;-70
2022/01/15 00:47:45;;;;;;;54.85;14.10;;;;;;;7.18;64.99;103233.66;4988848;28;113710;-70
2022/01/15 00:50:12;;;;;;;47.35;13.27;;;;;;;7.20;64.67;103226.66;4990100;28;114333;-70
2022/01/15 00:52:41;;;;;;;52.20;13.70;;;;;;;7.22;65.02;103227.53;4990015;28;124557;-70
2022/01/15 00:55:11;;;;;;;49.33;13.40;;;;;;;7.25;64.59;103220.53;4984206;28;122682;-70
2022/01/15 00:57:38;;;;;;;43.75;12.88;;;;;;;7.25;64.77;103217.88;4990526;28;115846;-70
2022/01/15 01:00:08;;;;;;;54.70;12.48;;;;;;;7.24;64.57;103221.41;4990451;28;114905;-70
2022/01/15 01:02:35;;;;;;;60.50;12.00;;;;;;;7.25;64.76;103224.03;4988816;28;123457;-70
2022/01/15 01:05:03;;;;;;;42.75;11.40;;;;;;;7.21;64.39;103212.63;4990458;28;123852;-70
2022/01/15 01:07:30;;;;;;;34.85;10.18;;;;;;;7.19;64.67;103214.31;4990787;28;113969;-70
2022/01/15 01:12:34;;;;;;;47.88;12.05;;;;;;;7.22;64.73;103214.34;4990887;28;123140;-71
2022/01/15 01:23:18;;;;;;;39.65;12.07;;;;;;;7.21;64.58;103202.06;4986081;28;123943;-70
2022/01/15 01:25:49;;;;;;;37.40;11.40;;;;;;;7.24;64.98;103200.31;4990387;28;124406;-70
2022/01/15 01:28:27;;;;;;;34.13;10.52;;;;;;;7.22;64.60;103203.81;4989823;28;113778;-70
2022/01/15 01:36:08;;;;;;;43.25;12.80;;;;;;;7.20;64.59;103189.75;4988521;28;122903;-70
2022/01/15 01:38:43;;;;;;;45.35;11.98;;;;;;;7.20;64.61;103197.66;4987988;28;114877;-71
2022/01/15 01:41:18;;;;;;;39.70;11.98;;;;;;;7.19;64.76;103193.25;4985654;28;113930;-71
2022/01/15 01:48:58;;;;;;;50.70;13.18;;;;;;;7.25;65.04;103183.63;4989167;28;115314;-70
2022/01/15 01:51:35;;;;;;;45.13;13.25;;;;;;;7.26;64.98;103182.75;4992095;28;115374;-68
2022/01/15 01:54:05;;;;;;;41.45;11.88;;;;;;;7.29;64.89;103188.03;4990622;28;124357;-69
2022/01/15 01:56:34;;;;;;;39.20;11.52;;;;;;;7.28;64.71;103178.38;4992004;28;124814;-70
2022/01/15 01:59:03;;;;;;;43.00;11.55;;;;;;;7.27;64.72;103181.88;4993597;28;114234;-70
2022/01/15 02:01:31;;;;;;;36.55;11.80;;;;;;;7.25;64.39;103183.63;4989945;28;113874;-70
2022/01/15 02:03:59;;;;;;;36.55;11.05;;;;;;;7.22;64.70;103187.13;4992596;28;125355;-70
2022/01/15 02:06:27;;;;;;;39.58;12.10;;;;;;;7.22;64.54;103188.00;4992319;28;124608;-70
2022/01/15 02:08:55;;;;;;;39.25;12.73;;;;;;;7.20;64.55;103179.22;4994599;28;113604;-70
2022/01/15 02:11:24;;;;;;;46.38;12.63;;;;;;;7.20;64.84;103171.31;4992071;28;113905;-71
2022/01/15 02:13:52;;;;;;;44.50;11.88;;;;;;;7.22;64.83;103173.94;4991667;28;124081;-70
2022/01/15 02:16:19;;;;;;;39.65;11.65;;;;;;;7.22;64.79;103172.19;4992965;28;123752;-71
2022/01/15 02:18:46;;;;;;;49.63;12.98;;;;;;;7.22;65.06;103172.19;4976086;28;112891;-71
2022/01/15 02:23:45;;;;;;;48.20;12.98;;;;;;;7.24;64.71;103168.69;4993114;28;123748;-71
2022/01/15 02:26:18;;;;;;;45.90;13.63;;;;;;;7.27;64.82;103158.16;4990032;28;123476;-70
2022/01/15 02:28:52;;;;;;;45.53;13.80;;;;;;;7.28;64.93;103165.19;4992142;28;114436;-71
2022/01/15 02:31:21;;;;;;;47.33;12.32;;;;;;;7.29;64.87;103164.31;4989870;28;113936;-71
2022/01/15 02:33:49;;;;;;;53.55;12.52;;;;;;;7.27;64.71;103155.50;4972204;28;123513;-71
2022/01/15 02:36:22;;;;;;;43.83;13.30;;;;;;;7.25;64.40;103159.91;4992704;28;124200;-70
2022/01/15 02:38:50;;;;;;;44.08;13.35;;;;;;;7.22;64.68;103145.84;4988697;28;115134;-71
2022/01/15 02:41:28;;;;;;;46.17;12.35;;;;;;;7.22;64.81;103156.38;4993693;28;115179;-70
2022/01/15 02:43:56;;;;;;;44.55;13.40;;;;;;;7.24;64.83;103147.63;4990267;28;123990;-70
2022/01/15 02:49:00;;;;;;;50.88;13.95;;;;;;;7.24;64.97;103142.34;4993502;28;114413;-70
2022/01/15 02:51:29;;;;;;;51.10;13.80;;;;;;;7.22;64.68;103135.28;4991192;28;113953;-71
2022/01/15 02:53:56;;;;;;;47.42;12.93;;;;;;;7.22;64.92;103137.94;4991494;28;123914;-70
2022/01/15 02:56:26;;;;;;;36.30;13.38;;;;;;;7.22;64.97;103132.66;4991270;28;122697;-71
2022/01/15 02:58:53;;;;;;;45.67;13.93;;;;;;;7.22;64.69;103123.88;4993677;28;114072;-71
2022/01/15 03:01:21;;;;;;;41.97;12.50;;;;;;;7.21;64.63;103123.00;4991745;28;114689;-71
2022/01/15 03:03:49;;;;;;;35.92;11.80;;;;;;;7.21;65.01;103122.09;4988831;28;123703;-70
2022/01/15 03:06:19;;;;;;;45.22;13.13;;;;;;;7.20;64.99;103115.97;4992015;28;123622;-70
2022/01/15 03:08:48;;;;;;;40.95;12.43;;;;;;;7.21;64.93;103112.47;4993200;28;114443;-70
2022/01/15 03:11:15;;;;;;;45.17;12.27;;;;;;;7.21;64.95;103107.19;4976622;28;112870;-70
2022/01/15 03:13:44;;;;;;;38.40;12.02;;;;;;;7.24;65.10;103105.44;4991488;28;124575;-70
2022/01/15 03:16:14;;;;;;;40.05;12.00;;;;;;;7.24;65.02;103094.91;4992362;28;124350;-71
2022/01/15 03:18:42;;;;;;;37.55;12.30;;;;;;;7.26;64.97;103093.16;4992059;28;114248;-71
2022/01/15 03:21:10;;;;;;;37.00;11.50;;;;;;;7.28;64.88;103086.13;4990423;28;115203;-70
2022/01/15 03:23:37;;;;;;;33.13;11.32;;;;;;;7.29;65.12;103082.59;4992416;28;124017;-71
2022/01/15 03:26:07;;;;;;;35.05;10.50;;;;;;;7.27;64.86;103073.81;4992617;28;123969;-70
2022/01/15 03:28:35;;;;;;;27.75;9.70;;;;;;;7.29;64.92;103072.06;4991069;28;116163;-70
2022/01/15 03:31:02;;;;;;;34.70;9.82;;;;;;;7.28;64.97;103065.03;4992425;28;115127;-71
2022/01/15 03:33:32;;;;;;;30.52;9.82;;;;;;;7.30;64.61;103069.44;5004223;28;123128;-71
2022/01/15 03:35:59;;;;;;;26.80;9.18;;;;;;;7.31;64.94;103070.31;4990984;28;124096;-71
2022/01/15 03:38:26;;;;;;;26.27;9.05;;;;;;;7.32;64.43;103061.53;4990497;28;113073;-70
2022/01/15 03:40:54;;;;;;;28.13;9.50;;;;;;;7.33;64.95;103063.31;4990333;28;112534;-70
2022/01/15 03:43:22;;;;;;;31.70;9.98;;;;;;;7.35;65.11;103062.44;4992261;28;123943;-70
2022/01/15 03:45:49;;;;;;;35.47;10.82;;;;;;;7.37;64.80;103067.72;4992727;28;123544;-71
2022/01/15 03:48:17;;;;;;;34.80;11.38;;;;;;;7.37;65.08;103073.88;4990926;28;112067;-70
2022/01/15 03:50:44;;;;;;;34.28;10.10;;;;;;;7.39;64.99;103069.47;4979303;28;113362;-70
2022/01/15 03:53:11;;;;;;;33.33;10.75;;;;;;;7.40;64.98;103059.81;4991535;28;124852;-70
2022/01/15 03:55:39;;;;;;;40.20;12.57;;;;;;;7.42;65.08;103060.69;4990944;28;124164;-70
2022/01/15 03:58:06;;;;;;;38.47;12.00;;;;;;;7.42;64.88;103063.31;4991100;28;113111;-70
2022/01/15 04:00:33;;;;;;;42.50;12.70;;;;;;;7.43;65.09;103059.84;4992307;28;113135;-70
2022/01/15 04:03:02;;;;;;;45.42;12.57;;;;;;;7.44;64.84;103051.06;4992681;28;124313;-71
2022/01/15 04:05:31;;;;;;;41.63;12.20;;;;;;;7.44;65.00;103056.34;4988262;28;123841;-70
2022/01/15 04:07:58;;;;;;;38.20;12.45;;;;;;;7.44;64.98;103051.06;4993288;28;114013;-71
2022/01/15 04:10:25;;;;;;;35.15;11.50;;;;;;;7.44;64.77;103040.50;4991438;28;114157;-70
2022/01/15 04:12:52;;;;;;;38.30;11.63;;;;;;;7.46;64.90;103038.75;4991061;28;123978;-71
2022/01/15 04:15:21;;;;;;;33.20;10.75;;;;;;;7.45;64.93;103036.97;4995148;28;123832;-71
2022/01/15 04:17:50;;;;;;;35.88;10.95;;;;;;;7.44;64.77;103029.97;4991802;28;116401;-71
2022/01/15 04:20:21;;;;;;;31.05;10.55;;;;;;;7.43;64.83;103022.91;4989948;28;115260;-71
2022/01/15 04:22:50;;;;;;;31.20;10.52;;;;;;;7.43;64.72;103028.19;4986713;28;124309;-71
2022/01/15 04:25:17;;;;;;;44.33;11.57;;;;;;;7.43;64.96;103028.19;4990607;28;124874;-70
2022/01/15 04:27:45;;;;;;;33.85;11.57;;;;;;;7.43;64.88;103025.56;4991131;28;115261;-71
2022/01/15 04:30:14;;;;;;;33.00;10.82;;;;;;;7.44;65.09;103024.69;4989117;28;111883;-71
2022/01/15 04:32:41;;;;;;;37.03;11.45;;;;;;;7.44;65.09;103024.69;4987291;28;122963;-71
2022/01/15 04:35:09;;;;;;;34.55;11.13;;;;;;;7.46;65.10;103028.22;4988590;28;124527;-71
2022/01/15 04:37:41;;;;;;;38.63;11.38;;;;;;;7.47;65.06;103024.69;4990283;28;113905;-71
2022/01/15 04:40:09;;;;;;;38.97;12.25;;;;;;;7.47;64.84;103014.13;4988724;28;112716;-70
2022/01/15 04:42:36;;;;;;;35.97;11.23;;;;;;;7.48;64.89;103005.38;4989228;28;123794;-71
2022/01/15 04:45:06;;;;;;;37.97;11.13;;;;;;;7.48;64.90;103007.09;4989215;28;124055;-71
2022/01/15 04:47:35;;;;;;;35.55;11.00;;;;;;;7.49;64.78;103007.09;4988197;28;114375;-71
2022/01/15 04:50:08;;;;;;;35.90;11.55;;;;;;;7.49;64.95;103001.84;4989859;28;114493;-70
2022/01/15 04:52:36;;;;;;;41.15;11.85;;;;;;;7.51;64.75;103005.34;4984517;28;123722;-71
2022/01/15 04:55:06;;;;;;;48.33;13.65;;;;;;;7.52;64.87;102996.59;4989413;28;123538;-71
2022/01/15 04:57:33;;;;;;;40.47;13.02;;;;;;;7.51;64.87;102989.53;4985188;28;114388;-70
2022/01/15 05:00:02;;;;;;;41.88;12.00;;;;;;;7.50;64.64;102993.06;4990852;28;113802;-71
2022/01/15 05:02:29;;;;;;;40.67;11.43;;;;;;;7.50;65.02;102993.06;4990984;28;124293;-70
2022/01/15 05:04:56;;;;;;;46.88;12.50;;;;;;;7.52;64.95;102985.16;4991447;28;124215;-71
2022/01/15 05:07:23;;;;;;;37.92;11.05;;;;;;;7.54;65.05;102989.56;4971139;28;113588;-71
2022/01/15 05:09:50;;;;;;;36.28;11.20;;;;;;;7.56;64.69;102993.06;4987499;28;114423;-71
2022/01/15 05:12:31;;;;;;;32.03;10.35;;;;;;;7.56;64.95;102995.72;4989059;28;123316;-71
2022/01/15 05:14:58;;;;;;;29.92;9.60;;;;;;;7.56;64.63;102995.72;4983773;28;123877;-71
2022/01/15 05:17:26;;;;;;;39.00;10.07;;;;;;;7.55;65.10;102991.31;4987963;28;113142;-71
2022/01/15 05:19:53;;;;;;;36.30;11.05;;;;;;;7.54;64.98;102994.81;4988843;28;113986;-70
2022/01/15 05:22:20;;;;;;;32.67;10.30;;;;;;;7.53;64.67;102987.78;4988401;28;124617;-70
2022/01/15 05:24:47;;;;;;;40.90;11.32;;;;;;;7.51;64.84;102989.53;4988064;28;123898;-71
2022/01/15 05:27:15;;;;;;;39.45;12.40;;;;;;;7.52;65.00;102986.03;4987967;28;113765;-71
2022/01/15 05:29:42;;;;;;;47.50;12.18;;;;;;;7.52;64.91;102983.41;4989202;28;113788;-70
2022/01/15 05:32:09;;;;;;;33.50;9.90;;;;;;;7.53;64.81;102987.78;4988027;28;124103;-71
2022/01/15 05:34:38;;;;;;;34.75;9.60;;;;;;;7.53;64.82;102986.91;4970896;28;124312;-71
2022/01/15 05:37:06;;;;;;;29.98;9.32;;;;;;;7.52;64.65;102986.03;4989106;28;114353;-71
2022/01/15 05:39:33;;;;;;;33.20;10.18;;;;;;;7.53;65.09;102982.50;4990170;28;113588;-70
2022/01/15 05:42:00;;;;;;;34.15;10.15;;;;;;;7.54;64.58;102979.00;4988677;28;124160;-71
2022/01/15 05:44:27;;;;;;;37.47;10.90;;;;;;;7.53;64.93;102977.22;4987529;28;124641;-71
2022/01/15 05:46:54;;;;;;;31.42;9.10;;;;;;;7.52;65.04;102970.22;4987244;28;114534;-69
2022/01/15 05:49:22;;;;;;;24.23;8.85;;;;;;;7.50;64.79;102969.34;4988829;28;112731;-69
2022/01/15 05:51:49;;;;;;;31.98;9.68;;;;;;;7.48;64.67;102960.53;4988079;28;123538;-70
2022/01/15 05:54:16;;;;;;;33.85;10.00;;;;;;;7.47;64.91;102966.69;4988267;28;123243;-70
2022/01/15 05:56:45;;;;;;;32.17;10.27;;;;;;;7.44;64.58;102971.06;4988657;28;114200;-70
2022/01/15 05:59:12;;;;;;;31.02;9.52;;;;;;;7.42;64.71;102963.16;4989535;28;114913;-70
2022/01/15 06:01:39;;;;;;;35.13;10.02;;;;;;;7.40;64.46;102962.25;4986672;28;124313;-70
2022/01/15 06:04:06;;;;;;;36.28;9.57;;;;;;;7.38;64.51;102956.13;4989038;28;123761;-70
2022/01/15 06:06:34;;;;;;;35.58;10.18;;;;;;;7.38;64.81;102956.13;4988868;28;114413;-68
2022/01/15 06:09:02;;;;;;;32.55;9.55;;;;;;;7.36;64.56;102952.59;4988422;28;112113;-70
2022/01/15 06:11:30;;;;;;;30.15;9.50;;;;;;;7.36;64.75;102953.47;4987416;28;123405;-69
2022/01/15 06:13:57;;;;;;;27.30;9.35;;;;;;;7.37;64.60;102954.38;4989010;28;123523;-70
2022/01/15 06:16:24;;;;;;;24.70;8.80;;;;;;;7.36;64.64;102948.19;4987649;28;113530;-70
2022/01/15 06:18:52;;;;;;;31.52;9.65;;;;;;;7.38;64.76;102946.47;4999104;28;112373;-71
2022/01/15 06:21:19;;;;;;;34.92;10.15;;;;;;;7.40;64.81;102946.44;4987860;28;124785;-70
2022/01/15 06:23:46;;;;;;;36.17;10.48;;;;;;;7.40;64.69;102943.81;4986996;28;124389;-71
2022/01/15 06:26:13;;;;;;;38.60;9.98;;;;;;;7.38;64.76;102930.66;4995006;28;113274;-71
2022/01/15 06:28:40;;;;;;;27.70;9.00;;;;;;;7.37;64.59;102925.38;4989137;28;113885;-70
2022/01/15 06:31:08;;;;;;;28.50;9.02;;;;;;;7.34;64.75;102922.72;4988025;28;125036;-71
2022/01/15 06:33:35;;;;;;;32.63;8.70;;;;;;;7.32;64.66;102924.47;4989428;28;123758;-71
2022/01/15 06:36:02;;;;;;;30.50;8.90;;;;;;;7.28;64.87;102922.72;4990480;28;114603;-71
2022/01/15 06:38:29;;;;;;;32.78;10.00;;;;;;;7.26;64.47;102921.84;4992229;28;114117;-71
2022/01/15 06:40:56;;;;;;;29.13;8.63;;;;;;;7.24;64.53;102926.22;4990723;28;124485;-73
2022/01/15 06:43:23;;;;;;;33.20;9.27;;;;;;;7.21;64.44;102922.72;4991145;28;124277;-71
2022/01/15 06:45:50;;;;;;;37.60;10.30;;;;;;;7.21;64.59;102925.34;4989370;28;113552;-70
2022/01/15 06:48:18;;;;;;;35.30;9.45;;;;;;;7.19;64.60;102924.44;4992208;28;115490;-71
2022/01/15 06:50:45;;;;;;;34.55;9.35;;;;;;;7.17;64.59;102920.91;4991083;28;123979;-70
2022/01/15 06:53:12;;;;;;;26.48;8.18;;;;;;;7.15;64.77;102916.53;4989077;28;124233;-71
2022/01/15 06:55:40;;;;;;;32.22;8.77;;;;;;;7.16;64.60;102919.16;4990974;28;114632;-71
2022/01/15 06:58:07;;;;;;;31.55;9.50;;;;;;;7.14;64.71;102910.38;4990182;28;113298;-71
2022/01/15 07:00:34;;;;;;;36.70;9.65;;;;;;;7.12;64.75;102912.13;4989621;28;124446;-71
2022/01/15 07:03:02;;;;;;;33.28;9.68;;;;;;;7.11;64.64;102920.91;4989936;28;122816;-71
2022/01/15 07:05:31;;;;;;;37.65;10.38;;;;;;;7.09;65.01;102917.38;4988896;28;114164;-71
2022/01/15 07:07:58;;;;;;;37.10;10.63;;;;;;;7.08;64.85;102910.34;4989752;28;114506;-71
2022/01/15 07:10:25;;;;;;;36.00;10.60;;;;;;;7.10;65.08;102908.63;4989066;28;123810;-70
2022/01/15 07:12:52;;;;;;;42.40;11.70;;;;;;;7.11;65.17;102910.38;4986376;28;123926;-71
2022/01/15 07:15:20;;;;;;;48.35;11.05;;;;;;;7.12;64.92;102900.69;4988963;28;113693;-70
2022/01/15 07:17:48;;;;;;;43.40;10.88;;;;;;;7.10;65.03;102908.63;4972368;28;113261;-71
2022/01/15 07:20:17;;;;;;;38.20;11.48;;;;;;;7.09;65.04;102906.84;4989161;28;123265;-71
2022/01/15 07:22:45;;;;;;;35.03;10.85;;;;;;;7.08;65.01;102910.34;4990459;28;124045;-71
2022/01/15 07:25:13;;;;;;;41.42;12.02;;;;;;;7.06;65.02;102912.09;4987027;28;113306;-71
2022/01/15 07:27:40;;;;;;;41.08;11.27;;;;;;;7.06;64.92;102900.69;4991626;28;113713;-70
2022/01/15 07:30:09;;;;;;;50.45;11.00;;;;;;;7.06;65.13;102916.50;4990568;28;123919;-70
2022/01/15 07:32:37;;;;;;;41.50;10.50;;;;;;;7.04;65.03;102908.59;4989193;28;123093;-70
2022/01/15 07:35:04;;;;;;;35.88;10.90;;;;;;;7.05;64.75;102918.25;4989301;28;115120;-70
2022/01/15 07:37:31;;;;;;;41.03;11.20;;;;;;;7.08;64.76;102915.63;4985931;28;115063;-70
2022/01/15 07:39:59;;;;;;;36.83;10.73;;;;;;;7.07;64.85;102908.59;4971744;28;124161;-70
2022/01/15 07:42:33;;;;;;;37.05;11.05;;;;;;;7.07;64.77;102918.28;4986720;28;124041;-70
2022/01/15 07:45:08;;;;;;;44.97;11.98;;;;;;;7.06;65.05;102920.00;4986200;28;114583;-70
2022/01/15 07:47:37;;;;;;;41.08;11.35;;;;;;;7.06;64.84;102917.38;4983406;28;113416;-70
2022/01/15 07:50:07;;;;;;;43.38;10.77;;;;;;;7.05;65.16;102915.63;4987550;28;123616;-70
2022/01/15 07:52:34;;;;;;;42.45;10.57;;;;;;;7.04;64.92;102919.13;4984454;28;123883;-70
2022/01/15 07:55:02;;;;;;;37.42;11.25;;;;;;;7.01;64.82;102917.38;4989791;28;114236;-70
2022/01/15 07:57:49;;;;;;;40.80;10.30;;;;;;;6.99;64.68;102915.63;4988492;28;114032;-70
2022/01/15 08:00:18;;;;;;;44.92;10.90;;;;;;;6.98;64.80;102919.97;4987740;28;123917;-70
2022/01/15 08:02:45;;;;;;;40.65;10.90;;;;;;;6.98;65.18;102921.75;4990290;28;124335;-71
2022/01/15 08:05:13;;;;;;;38.22;11.60;;;;;;;6.97;65.14;102917.38;4985441;28;114274;-72
2022/01/15 08:07:40;;;;;;;50.38;10.75;;;;;;;6.98;64.79;102913.84;4988869;28;113265;-72
2022/01/15 08:10:08;;;;;;;37.03;10.95;;;;;;;6.96;64.86;102905.06;4986870;28;123919;-72
2022/01/15 08:12:48;;;;;;;40.47;10.75;;;;;;;6.94;64.60;102906.81;4991065;28;124054;-74
2022/01/15 08:15:19;;;;;;;34.85;9.82;;;;;;;6.91;64.59;102896.25;4987324;28;113456;-72
2022/01/15 08:17:46;;;;;;;34.42;9.75;;;;;;;6.86;64.76;102905.91;4989385;28;113207;-71
2022/01/15 08:20:14;;;;;;;34.15;9.10;;;;;;;6.81;64.78;102901.47;4986283;28;123857;-71
2022/01/15 08:22:42;;;;;;;27.67;9.02;;;;;;;6.78;64.79;102896.22;4992764;28;123991;-69
2022/01/15 08:25:12;;;;;;;31.38;9.27;;;;;;;6.76;64.73;102897.97;4990237;28;114669;-70
2022/01/15 08:27:39;;;;;;;38.17;9.93;;;;;;;6.71;64.89;102894.44;4991148;28;114706;-71
2022/01/15 08:30:07;;;;;;;34.80;9.50;;;;;;;6.71;64.89;102894.44;4990709;28;124404;-70
2022/01/15 08:32:35;;;;;;;33.05;9.57;;;;;;;6.69;64.60;102896.19;5002891;28;122783;-71
2022/01/15 08:35:03;;;;;;;36.42;10.23;;;;;;;6.67;64.61;102887.41;4991197;28;114175;-71
2022/01/15 08:37:30;;;;;;;32.88;9.68;;;;;;;6.66;64.94;102893.53;4990018;28;113982;-71
2022/01/15 08:39:57;;;;;;;32.53;9.93;;;;;;;6.62;64.72;102895.25;4972079;28;123307;-71
2022/01/15 08:42:24;;;;;;;32.45;10.48;;;;;;;6.61;64.94;102897.88;4991939;28;123814;-70
2022/01/15 08:44:53;;;;;;;32.60;9.73;;;;;;;6.58;64.53;102890.84;4987413;28;114464;-70
2022/01/15 08:47:20;;;;;;;28.70;9.43;;;;;;;6.56;64.96;102891.75;4973788;28;113581;-70
2022/01/15 08:49:47;;;;;;;31.20;9.88;;;;;;;6.54;64.84;102901.38;4973423;28;123362;-69
2022/01/15 08:52:15;;;;;;;28.77;9.05;;;;;;;6.53;64.92;102899.59;4991935;28;123137;-70
2022/01/15 08:54:42;;;;;;;29.60;8.93;;;;;;;6.52;64.85;102903.13;4992208;28;114044;-70
2022/01/15 08:57:09;;;;;;;28.77;9.02;;;;;;;6.49;64.81;102897.84;4990886;28;113644;-70
2022/01/15 08:59:36;;;;;;;28.13;9.55;;;;;;;6.43;64.51;102889.03;4991725;28;123882;-70
2022/01/15 09:02:03;;;;;;;30.80;9.27;;;;;;;6.42;64.85;102892.56;4989569;28;124685;-70
2022/01/15 09:04:31;;;;;;;29.55;9.13;;;;;;;6.43;64.72;102894.28;4990885;28;114164;-70
2022/01/15 09:06:59;;;;;;;34.15;9.55;;;;;;;6.42;64.68;102887.28;4990074;28;113408;-70
2022/01/15 09:09:26;;;;;;;31.50;10.20;;;;;;;6.43;64.75;102891.66;4970919;28;123072;-70
2022/01/15 09:11:53;;;;;;;28.90;8.93;;;;;;;6.43;65.01;102894.28;4991501;28;124258;-71
2022/01/15 09:14:20;;;;;;;35.10;10.10;;;;;;;6.46;64.87;102901.34;4990954;28;114991;-71
2022/01/15 09:16:47;;;;;;;31.92;9.93;;;;;;;6.50;65.12;102889.06;4998088;28;114953;-71
2022/01/15 09:19:14;;;;;;;30.77;9.80;;;;;;;6.51;64.66;102890.81;4994096;28;123215;-71
2022/01/15 09:21:42;;;;;;;38.45;10.05;;;;;;;6.49;64.51;102897.84;4988367;28;123082;-71
2022/01/15 09:24:09;;;;;;;33.38;10.82;;;;;;;6.46;64.99;102903.97;4989340;28;114288;-71
2022/01/15 09:31:59;;;;;;;38.25;11.55;;;;;;;6.38;64.83;102901.28;4999054;28;124636;-70
2022/01/15 09:34:27;;;;;;;42.00;12.82;;;;;;;6.36;64.84;102897.75;5008147;28;113482;-71
2022/01/15 09:36:55;;;;;;;36.75;12.65;;;;;;;6.38;64.93;102896.00;4992292;28;113595;-71
2022/01/15 09:39:23;;;;;;;38.72;11.60;;;;;;;6.38;65.04;102889.88;4992528;28;124327;-70
2022/01/15 09:41:54;;;;;;;39.33;11.82;;;;;;;6.38;64.71;102889.88;4973148;28;123375;-72
2022/01/15 09:44:23;;;;;;;38.17;12.02;;;;;;;6.38;64.94;102888.13;4991636;28;114715;-71
2022/01/15 09:46:51;;;;;;;35.45;12.18;;;;;;;6.38;65.15;102885.47;4990716;28;113736;-71
2022/01/15 09:49:22;;;;;;;34.97;12.70;;;;;;;6.39;64.98;102882.00;4991694;28;123235;-71
2022/01/15 09:51:49;;;;;;;33.35;12.20;;;;;;;6.39;64.66;102881.13;4989986;28;123889;-71
2022/01/15 09:54:17;;;;;;;37.47;11.05;;;;;;;6.36;64.29;102873.19;4991821;28;115125;-71
2022/01/15 09:56:46;;;;;;;33.95;11.52;;;;;;;6.29;64.62;102880.19;4991681;28;113270;-72
2022/01/15 09:59:14;;;;;;;34.33;11.95;;;;;;;6.24;64.26;102876.66;4989908;28;123677;-71
2022/01/15 10:01:42;;;;;;;36.55;11.50;;;;;;;6.20;64.68;102870.50;4989427;28;122767;-71
2022/01/15 10:04:09;;;;;;;31.92;11.20;;;;;;;6.19;64.85;102868.72;4989416;28;115582;-71
2022/01/15 10:06:36;;;;;;;28.42;11.57;;;;;;;6.18;64.50;102868.72;4991274;28;114434;-71
2022/01/15 10:09:06;;;;;;;35.83;11.43;;;;;;;6.19;64.62;102873.97;4993935;28;123948;-71
2022/01/15 10:11:48;;;;;;;34.83;12.65;;;;;;;6.20;64.58;102874.88;4994566;28;125230;-71
2022/01/15 10:14:33;;;;;;;38.75;12.15;;;;;;;6.19;64.59;102873.09;4991109;28;114676;-70
2022/01/15 10:17:02;;;;;;;35.63;12.20;;;;;;;6.19;64.53;102867.84;4992703;28;114302;-70
2022/01/15 10:19:32;;;;;;;34.95;11.23;;;;;;;6.18;64.50;102871.38;4992727;28;123696;-71
2022/01/15 10:22:13;;;;;;;36.10;11.32;;;;;;;6.15;64.52;102879.22;4992889;28;125422;-70
2022/01/15 10:24:51;;;;;;;29.27;10.70;;;;;;;6.07;64.62;102878.31;4991845;28;114892;-71
2022/01/15 10:27:22;;;;;;;34.28;11.52;;;;;;;6.01;64.60;102880.03;4991691;28;113904;-71
2022/01/15 10:29:52;;;;;;;36.25;11.38;;;;;;;5.97;64.54;102875.63;4993234;28;125479;-70
2022/01/15 10:32:20;;;;;;;37.05;11.70;;;;;;;5.96;64.70;102878.22;4994086;28;124078;-71
2022/01/15 10:34:47;;;;;;;28.55;11.70;;;;;;;5.93;64.78;102868.50;4992530;28;114865;-71
2022/01/15 10:37:17;;;;;;;34.30;12.25;;;;;;;5.95;64.63;102879.97;4992419;28;113655;-71
2022/01/15 10:39:58;;;;;;;35.10;12.07;;;;;;;5.95;64.70;102877.34;4960409;28;124140;-71
2022/01/15 10:42:26;;;;;;;33.15;12.43;;;;;;;6.00;64.98;102883.50;4991027;28;124296;-71
2022/01/15 10:44:56;;;;;;;34.38;12.25;;;;;;;6.01;65.00;102874.75;4993734;28;114655;-70
2022/01/15 10:47:26;;;;;;;30.83;11.75;;;;;;;6.00;64.56;102867.72;4994089;28;113564;-70
2022/01/15 10:49:58;;;;;;;35.70;12.60;;;;;;;5.99;64.91;102855.47;4993429;28;123800;-71
2022/01/15 10:52:26;;;;;;;40.78;12.45;;;;;;;6.01;64.70;102864.22;4975970;28;123151;-71
2022/01/15 10:55:01;;;;;;;34.90;12.57;;;;;;;6.01;64.89;102863.38;4992912;28;114970;-71
2022/01/15 10:57:34;;;;;;;45.30;12.83;;;;;;;6.01;64.75;102853.72;4992108;28;114683;-71
2022/01/15 11:00:19;;;;;;;40.85;13.15;;;;;;;6.06;65.01;102853.72;4989244;28;124588;-71
2022/01/15 11:02:52;;;;;;;38.92;12.55;;;;;;;6.09;64.70;102847.63;4989223;28;123609;-71
2022/01/15 11:05:26;;;;;;;43.65;13.48;;;;;;;6.09;64.69;102845.00;4990198;28;113178;-71
2022/01/15 11:08:03;;;;;;;35.83;12.82;;;;;;;6.09;64.98;102834.47;4990419;28;114120;-71
2022/01/15 11:10:43;;;;;;;35.60;12.90;;;;;;;6.11;64.70;102835.38;4989450;28;124584;-70
2022/01/15 11:13:14;;;;;;;41.63;12.98;;;;;;;6.12;64.78;102837.09;4975543;28;122751;-70
2022/01/15 11:15:44;;;;;;;37.95;13.38;;;;;;;6.11;64.72;102838.00;4991341;28;114187;-71
2022/01/15 11:18:17;;;;;;;37.50;13.30;;;;;;;6.10;64.77;102841.47;4991540;28;114618;-70
2022/01/15 11:20:47;;;;;;;35.95;12.48;;;;;;;6.10;64.70;102844.09;4989046;28;124471;-71
2022/01/15 11:23:16;;;;;;;32.38;12.45;;;;;;;6.10;64.70;102836.22;4990954;28;122218;-71
2022/01/15 11:25:44;;;;;;;37.53;13.18;;;;;;;6.09;64.57;102829.22;4993525;28;114026;-70
2022/01/15 11:28:13;;;;;;;37.03;12.57;;;;;;;6.08;64.62;102830.06;4991878;28;113630;-70
2022/01/15 11:30:42;;;;;;;33.28;12.48;;;;;;;6.08;64.57;102817.78;5007299;28;123355;-70
2022/01/15 11:33:11;;;;;;;35.47;13.00;;;;;;;6.10;64.88;102809.91;4991130;28;123850;-69
2022/01/15 11:35:45;;;;;;;39.78;13.38;;;;;;;6.14;64.87;102811.69;4990995;28;114078;-70
2022/01/15 11:38:43;;;;;;;36.47;13.03;;;;;;;6.15;64.93;102813.47;4991232;28;113001;-70
2022/01/15 11:41:22;;;;;;;35.85;12.43;;;;;;;6.14;64.81;102806.41;4991791;28;124244;-70
2022/01/15 11:43:50;;;;;;;35.42;13.15;;;;;;;6.16;64.69;102812.56;4988591;28;125186;-70
2022/01/15 11:46:29;;;;;;;34.63;13.40;;;;;;;6.18;64.91;102802.97;4991134;28;115551;-70
2022/01/15 11:49:34;;;;;;;44.85;14.50;;;;;;;6.21;64.79;102800.31;4991071;28;113586;-70
2022/01/15 11:52:14;;;;;;;38.90;14.13;;;;;;;6.24;65.16;102797.72;4991641;28;122076;-69